sensor_id;sensor_type;location;lat;lon;timestamp;temperature;humidity
27671;DHT22;15077;49.704;9.908;2023-04-03T00:01:32;6.00;65.50
27671;DHT22;15077;49.704;9.908;2023-04-03T00:03:58;6.00;65.60
27671;DHT22;15077;49.704;9.908;2023-04-03T00:06:25;5.90;65.50
27671;DHT22;15077;49.704;9.908;2023-04-03T00:08:51;5.90;65.50
27671;DHT22;15077;49.704;9.908;2023-04-03T00:11:21;5.90;65.60
27671;DHT22;15077;49.704;9.908;2023-04-03T00:13:47;5.90;65.50
27671;DHT22;15077;49.704;9.908;2023-04-03T00:16:12;5.90;65.50
27671;DHT22;15077;49.704;9.908;2023-04-03T00:18:39;5.80;65.50
27671;DHT22;15077;49.704;9.908;2023-04-03T00:21:06;5.80;65.50
27671;DHT22;15077;49.704;9.908;2023-04-03T00:23:33;5.80;65.50
27671;DHT22;15077;49.704;9.908;2023-04-03T00:25:59;5.80;65.60
27671;DHT22;15077;49.704;9.908;2023-04-03T00:28:25;5.80;65.50
27671;DHT22;15077;49.704;9.908;2023-04-03T00:30:52;5.70;65.40
27671;DHT22;15077;49.704;9.908;2023-04-03T00:33:18;5.70;65.50
27671;DHT22;15077;49.704;9.908;2023-04-03T00:35:48;5.70;65.50
27671;DHT22;15077;49.704;9.908;2023-04-03T00:38:17;5.70;65.60
27671;DHT22;15077;49.704;9.908;2023-04-03T00:40:47;5.60;65.60
27671;DHT22;15077;49.704;9.908;2023-04-03T00:43:22;5.60;65.60
27671;DHT22;15077;49.704;9.908;2023-04-03T00:45:51;5.60;65.60
27671;DHT22;15077;49.704;9.908;2023-04-03T00:48:40;5.60;65.70
27671;DHT22;15077;49.704;9.908;2023-04-03T00:51:16;5.60;65.70
27671;DHT22;15077;49.704;9.908;2023-04-03T00:53:49;5.60;65.70
27671;DHT22;15077;49.704;9.908;2023-04-03T00:56:19;5.60;65.70
27671;DHT22;15077;49.704;9.908;2023-04-03T00:58:53;5.60;65.70
27671;DHT22;15077;49.704;9.908;2023-04-03T01:01:24;5.60;65.70
27671;DHT22;15077;49.704;9.908;2023-04-03T01:03:54;5.50;65.60
27671;DHT22;15077;49.704;9.908;2023-04-03T01:06:26;5.50;65.70
27671;DHT22;15077;49.704;9.908;2023-04-03T01:08:56;5.50;65.70
27671;DHT22;15077;49.704;9.908;2023-04-03T01:11:22;5.50;65.80
27671;DHT22;15077;49.704;9.908;2023-04-03T01:13:49;5.40;65.70
27671;DHT22;15077;49.704;9.908;2023-04-03T01:16:15;5.40;65.70
27671;DHT22;15077;49.704;9.908;2023-04-03T01:18:42;5.40;65.80
27671;DHT22;15077;49.704;9.908;2023-04-03T01:24:19;5.40;65.70
27671;DHT22;15077;49.704;9.908;2023-04-03T01:26:56;5.40;65.80
27671;DHT22;15077;49.704;9.908;2023-04-03T01:29:25;5.40;65.80
27671;DHT22;15077;49.704;9.908;2023-04-03T01:31:57;5.40;65.80
27671;DHT22;15077;49.704;9.908;2023-04-03T01:34:25;5.40;65.90
27671;DHT22;15077;49.704;9.908;2023-04-03T01:36:51;5.30;65.90
27671;DHT22;15077;49.704;9.908;2023-04-03T01:39:18;5.30;65.90
27671;DHT22;15077;49.704;9.908;2023-04-03T01:41:44;5.30;65.90
27671;DHT22;15077;49.704;9.908;2023-04-03T01:44:10;5.30;66.00
27671;DHT22;15077;49.704;9.908;2023-04-03T01:46:36;5.30;65.90
27671;DHT22;15077;49.704;9.908;2023-04-03T01:49:03;5.30;66.50
27671;DHT22;15077;49.704;9.908;2023-04-03T01:51:30;5.30;66.00
27671;DHT22;15077;49.704;9.908;2023-04-03T01:53:56;5.30;66.00
27671;DHT22;15077;49.704;9.908;2023-04-03T01:56:22;5.30;66.00
27671;DHT22;15077;49.704;9.908;2023-04-03T01:58:48;5.30;66.00
27671;DHT22;15077;49.704;9.908;2023-04-03T02:01:14;5.30;66.00
27671;DHT22;15077;49.704;9.908;2023-04-03T02:03:40;5.20;66.00
27671;DHT22;15077;49.704;9.908;2023-04-03T02:06:06;5.30;66.10
27671;DHT22;15077;49.704;9.908;2023-04-03T02:08:32;5.30;66.10
27671;DHT22;15077;49.704;9.908;2023-04-03T02:10:57;5.30;66.20
27671;DHT22;15077;49.704;9.908;2023-04-03T02:13:23;5.20;66.10
27671;DHT22;15077;49.704;9.908;2023-04-03T02:15:49;5.30;66.20
27671;DHT22;15077;49.704;9.908;2023-04-03T02:18:15;5.30;66.20
27671;DHT22;15077;49.704;9.908;2023-04-03T02:20:41;5.30;66.20
27671;DHT22;15077;49.704;9.908;2023-04-03T02:23:08;5.30;66.20
27671;DHT22;15077;49.704;9.908;2023-04-03T02:25:34;5.30;66.30
27671;DHT22;15077;49.704;9.908;2023-04-03T02:28:00;5.30;66.30
27671;DHT22;15077;49.704;9.908;2023-04-03T02:30:26;5.20;66.10
27671;DHT22;15077;49.704;9.908;2023-04-03T02:32:52;5.20;66.20
27671;DHT22;15077;49.704;9.908;2023-04-03T02:35:18;5.20;66.90
27671;DHT22;15077;49.704;9.908;2023-04-03T02:37:44;5.20;66.30
27671;DHT22;15077;49.704;9.908;2023-04-03T02:40:10;5.20;66.40
27671;DHT22;15077;49.704;9.908;2023-04-03T02:42:37;5.20;66.30
27671;DHT22;15077;49.704;9.908;2023-04-03T02:45:05;5.20;66.30
27671;DHT22;15077;49.704;9.908;2023-04-03T02:47:32;5.20;66.30
27671;DHT22;15077;49.704;9.908;2023-04-03T02:49:58;5.20;66.40
27671;DHT22;15077;49.704;9.908;2023-04-03T02:52:26;5.20;66.40
27671;DHT22;15077;49.704;9.908;2023-04-03T02:54:52;5.20;66.40
27671;DHT22;15077;49.704;9.908;2023-04-03T02:57:18;5.20;66.40
27671;DHT22;15077;49.704;9.908;2023-04-03T02:59:45;5.20;66.40
27671;DHT22;15077;49.704;9.908;2023-04-03T03:02:11;5.20;66.50
27671;DHT22;15077;49.704;9.908;2023-04-03T03:04:37;5.20;67.00
27671;DHT22;15077;49.704;9.908;2023-04-03T03:07:03;5.20;66.50
27671;DHT22;15077;49.704;9.908;2023-04-03T03:09:29;5.20;66.40
27671;DHT22;15077;49.704;9.908;2023-04-03T03:11:56;5.20;66.50
27671;DHT22;15077;49.704;9.908;2023-04-03T03:14:23;5.20;66.50
27671;DHT22;15077;49.704;9.908;2023-04-03T03:16:49;5.20;66.50
27671;DHT22;15077;49.704;9.908;2023-04-03T03:19:15;5.20;66.50
27671;DHT22;15077;49.704;9.908;2023-04-03T03:21:41;5.20;66.50
27671;DHT22;15077;49.704;9.908;2023-04-03T03:24:07;5.20;66.60
27671;DHT22;15077;49.704;9.908;2023-04-03T03:26:38;5.20;66.60
27671;DHT22;15077;49.704;9.908;2023-04-03T03:29:04;5.20;66.60
27671;DHT22;15077;49.704;9.908;2023-04-03T03:31:30;5.20;66.70
27671;DHT22;15077;49.704;9.908;2023-04-03T03:33:55;5.20;66.80
27671;DHT22;15077;49.704;9.908;2023-04-03T03:36:21;5.20;66.80
27671;DHT22;15077;49.704;9.908;2023-04-03T03:38:47;5.20;66.80
27671;DHT22;15077;49.704;9.908;2023-04-03T03:41:13;5.20;66.80
27671;DHT22;15077;49.704;9.908;2023-04-03T03:43:39;5.20;66.80
27671;DHT22;15077;49.704;9.908;2023-04-03T03:46:05;5.20;66.90
27671;DHT22;15077;49.704;9.908;2023-04-03T03:48:31;5.20;66.90
27671;DHT22;15077;49.704;9.908;2023-04-03T03:50:56;5.30;67.00
27671;DHT22;15077;49.704;9.908;2023-04-03T03:53:22;5.30;67.10
27671;DHT22;15077;49.704;9.908;2023-04-03T03:55:48;5.30;67.10
27671;DHT22;15077;49.704;9.908;2023-04-03T03:58:13;5.30;67.10
27671;DHT22;15077;49.704;9.908;2023-04-03T04:00:39;5.30;67.10
27671;DHT22;15077;49.704;9.908;2023-04-03T04:03:05;5.30;67.20
27671;DHT22;15077;49.704;9.908;2023-04-03T04:05:32;5.30;67.20
27671;DHT22;15077;49.704;9.908;2023-04-03T04:07:58;5.30;67.30
27671;DHT22;15077;49.704;9.908;2023-04-03T04:10:24;5.40;67.40
27671;DHT22;15077;49.704;9.908;2023-04-03T04:12:50;5.40;67.40
27671;DHT22;15077;49.704;9.908;2023-04-03T04:15:16;5.40;67.40
27671;DHT22;15077;49.704;9.908;2023-04-03T04:17:43;5.40;67.50
27671;DHT22;15077;49.704;9.908;2023-04-03T04:20:09;5.40;67.50
27671;DHT22;15077;49.704;9.908;2023-04-03T04:22:35;5.40;67.60
27671;DHT22;15077;49.704;9.908;2023-04-03T04:25:00;5.40;67.70
27671;DHT22;15077;49.704;9.908;2023-04-03T04:27:27;5.50;67.80
27671;DHT22;15077;49.704;9.908;2023-04-03T04:29:52;5.50;67.90
27671;DHT22;15077;49.704;9.908;2023-04-03T04:32:18;5.40;68.00
27671;DHT22;15077;49.704;9.908;2023-04-03T04:34:45;5.50;68.10
27671;DHT22;15077;49.704;9.908;2023-04-03T04:37:10;5.50;68.20
27671;DHT22;15077;49.704;9.908;2023-04-03T04:39:36;5.50;68.20
27671;DHT22;15077;49.704;9.908;2023-04-03T04:42:02;5.50;68.30
27671;DHT22;15077;49.704;9.908;2023-04-03T04:44:28;5.50;68.30
27671;DHT22;15077;49.704;9.908;2023-04-03T04:46:54;5.50;68.40
27671;DHT22;15077;49.704;9.908;2023-04-03T04:49:20;5.50;68.60
27671;DHT22;15077;49.704;9.908;2023-04-03T04:51:45;5.50;68.60
27671;DHT22;15077;49.704;9.908;2023-04-03T04:54:11;5.50;68.60
27671;DHT22;15077;49.704;9.908;2023-04-03T04:56:37;5.50;68.60
27671;DHT22;15077;49.704;9.908;2023-04-03T04:59:02;5.50;68.60
27671;DHT22;15077;49.704;9.908;2023-04-03T05:01:28;5.50;68.60
27671;DHT22;15077;49.704;9.908;2023-04-03T05:03:54;5.50;68.60
27671;DHT22;15077;49.704;9.908;2023-04-03T05:06:20;5.60;68.80
27671;DHT22;15077;49.704;9.908;2023-04-03T05:08:45;5.60;68.80
27671;DHT22;15077;49.704;9.908;2023-04-03T05:11:11;5.60;68.70
27671;DHT22;15077;49.704;9.908;2023-04-03T05:13:37;5.50;68.70
27671;DHT22;15077;49.704;9.908;2023-04-03T05:16:03;5.50;68.70
27671;DHT22;15077;49.704;9.908;2023-04-03T05:18:29;5.50;68.60
27671;DHT22;15077;49.704;9.908;2023-04-03T05:20:55;5.50;68.60
27671;DHT22;15077;49.704;9.908;2023-04-03T05:23:20;5.50;68.60
27671;DHT22;15077;49.704;9.908;2023-04-03T05:25:46;5.50;68.40
27671;DHT22;15077;49.704;9.908;2023-04-03T05:28:14;5.50;68.40
27671;DHT22;15077;49.704;9.908;2023-04-03T05:30:40;5.50;68.20
27671;DHT22;15077;49.704;9.908;2023-04-03T05:33:05;5.50;68.20
27671;DHT22;15077;49.704;9.908;2023-04-03T05:35:32;5.50;68.10
27671;DHT22;15077;49.704;9.908;2023-04-03T05:37:57;5.40;68.10
27671;DHT22;15077;49.704;9.908;2023-04-03T05:40:23;5.40;68.20
27671;DHT22;15077;49.704;9.908;2023-04-03T05:42:49;5.40;68.20
27671;DHT22;15077;49.704;9.908;2023-04-03T05:45:15;5.40;68.10
27671;DHT22;15077;49.704;9.908;2023-04-03T05:47:40;5.40;68.20
27671;DHT22;15077;49.704;9.908;2023-04-03T05:50:06;5.40;68.20
27671;DHT22;15077;49.704;9.908;2023-04-03T05:52:38;5.40;68.10
27671;DHT22;15077;49.704;9.908;2023-04-03T05:55:06;5.40;68.10
27671;DHT22;15077;49.704;9.908;2023-04-03T05:57:32;5.40;68.00
27671;DHT22;15077;49.704;9.908;2023-04-03T05:59:58;5.40;68.00
27671;DHT22;15077;49.704;9.908;2023-04-03T06:02:24;5.40;67.90
27671;DHT22;15077;49.704;9.908;2023-04-03T06:04:52;5.40;67.80
27671;DHT22;15077;49.704;9.908;2023-04-03T06:07:20;5.40;67.70
27671;DHT22;15077;49.704;9.908;2023-04-03T06:09:48;5.30;67.80
27671;DHT22;15077;49.704;9.908;2023-04-03T06:12:16;5.30;67.80
27671;DHT22;15077;49.704;9.908;2023-04-03T06:14:43;5.30;68.40
27671;DHT22;15077;49.704;9.908;2023-04-03T06:17:09;5.30;67.90
27671;DHT22;15077;49.704;9.908;2023-04-03T06:19:35;5.30;67.90
27671;DHT22;15077;49.704;9.908;2023-04-03T06:22:02;5.30;67.90
27671;DHT22;15077;49.704;9.908;2023-04-03T06:24:28;5.30;67.90
27671;DHT22;15077;49.704;9.908;2023-04-03T06:26:56;5.30;67.70
27671;DHT22;15077;49.704;9.908;2023-04-03T06:29:23;5.30;67.90
27671;DHT22;15077;49.704;9.908;2023-04-03T06:31:49;5.30;68.00
27671;DHT22;15077;49.704;9.908;2023-04-03T06:34:15;5.30;67.80
27671;DHT22;15077;49.704;9.908;2023-04-03T06:36:42;5.40;67.90
27671;DHT22;15077;49.704;9.908;2023-04-03T06:39:16;5.40;68.00
27671;DHT22;15077;49.704;9.908;2023-04-03T06:41:45;5.40;67.50
27671;DHT22;15077;49.704;9.908;2023-04-03T06:44:11;5.40;67.40
27671;DHT22;15077;49.704;9.908;2023-04-03T06:46:40;5.50;67.50
27671;DHT22;15077;49.704;9.908;2023-04-03T06:49:07;5.50;67.50
27671;DHT22;15077;49.704;9.908;2023-04-03T06:51:34;5.50;67.60
27671;DHT22;15077;49.704;9.908;2023-04-03T06:54:02;5.50;67.30
27671;DHT22;15077;49.704;9.908;2023-04-03T06:56:29;5.50;67.00
27671;DHT22;15077;49.704;9.908;2023-04-03T06:58:56;5.50;66.90
27671;DHT22;15077;49.704;9.908;2023-04-03T07:01:27;5.50;66.90
27671;DHT22;15077;49.704;9.908;2023-04-03T07:03:54;5.40;66.90
27671;DHT22;15077;49.704;9.908;2023-04-03T07:06:20;5.40;66.90
27671;DHT22;15077;49.704;9.908;2023-04-03T07:08:47;5.40;67.00
27671;DHT22;15077;49.704;9.908;2023-04-03T07:11:16;5.40;66.90
27671;DHT22;15077;49.704;9.908;2023-04-03T07:13:42;5.40;67.00
27671;DHT22;15077;49.704;9.908;2023-04-03T07:16:08;5.40;67.10
27671;DHT22;15077;49.704;9.908;2023-04-03T07:18:35;5.40;67.10
27671;DHT22;15077;49.704;9.908;2023-04-03T07:21:02;5.40;67.10
27671;DHT22;15077;49.704;9.908;2023-04-03T07:23:29;5.50;67.20
27671;DHT22;15077;49.704;9.908;2023-04-03T07:25:55;5.50;67.10
27671;DHT22;15077;49.704;9.908;2023-04-03T07:28:21;5.60;67.10
27671;DHT22;15077;49.704;9.908;2023-04-03T07:33:24;5.60;67.00
27671;DHT22;15077;49.704;9.908;2023-04-03T07:35:50;5.70;67.00
27671;DHT22;15077;49.704;9.908;2023-04-03T07:38:16;5.80;67.00
27671;DHT22;15077;49.704;9.908;2023-04-03T07:40:49;5.80;66.80
27671;DHT22;15077;49.704;9.908;2023-04-03T07:43:17;5.90;66.80
27671;DHT22;15077;49.704;9.908;2023-04-03T07:45:44;5.90;66.40
27671;DHT22;15077;49.704;9.908;2023-04-03T07:48:11;6.00;66.40
27671;DHT22;15077;49.704;9.908;2023-04-03T07:50:39;6.10;66.60
27671;DHT22;15077;49.704;9.908;2023-04-03T07:53:05;6.10;66.40
27671;DHT22;15077;49.704;9.908;2023-04-03T07:55:31;6.20;66.40
27671;DHT22;15077;49.704;9.908;2023-04-03T07:57:58;6.20;66.10
27671;DHT22;15077;49.704;9.908;2023-04-03T08:00:23;6.30;66.40
27671;DHT22;15077;49.704;9.908;2023-04-03T08:02:50;6.40;66.40
27671;DHT22;15077;49.704;9.908;2023-04-03T08:05:20;6.40;65.60
27671;DHT22;15077;49.704;9.908;2023-04-03T08:07:47;6.50;65.60
27671;DHT22;15077;49.704;9.908;2023-04-03T08:10:14;6.60;65.70
27671;DHT22;15077;49.704;9.908;2023-04-03T08:12:40;6.60;65.20
27671;DHT22;15077;49.704;9.908;2023-04-03T08:15:07;6.70;65.60
27671;DHT22;15077;49.704;9.908;2023-04-03T08:17:34;6.70;64.20
27671;DHT22;15077;49.704;9.908;2023-04-03T08:20:01;6.80;64.40
27671;DHT22;15077;49.704;9.908;2023-04-03T08:22:28;6.80;64.40
27671;DHT22;15077;49.704;9.908;2023-04-03T08:24:54;6.80;64.30
27671;DHT22;15077;49.704;9.908;2023-04-03T08:27:20;6.90;64.50
27671;DHT22;15077;49.704;9.908;2023-04-03T08:29:46;6.90;64.00
27671;DHT22;15077;49.704;9.908;2023-04-03T08:32:12;6.90;64.40
27671;DHT22;15077;49.704;9.908;2023-04-03T08:34:37;6.90;64.70
27671;DHT22;15077;49.704;9.908;2023-04-03T08:37:05;7.00;64.70
27671;DHT22;15077;49.704;9.908;2023-04-03T08:39:31;7.10;64.10
27671;DHT22;15077;49.704;9.908;2023-04-03T08:41:59;7.10;64.20
27671;DHT22;15077;49.704;9.908;2023-04-03T08:44:39;7.20;63.50
27671;DHT22;15077;49.704;9.908;2023-04-03T08:47:43;7.30;63.50
27671;DHT22;15077;49.704;9.908;2023-04-03T08:50:19;7.30;63.00
27671;DHT22;15077;49.704;9.908;2023-04-03T08:52:53;7.40;63.30
27671;DHT22;15077;49.704;9.908;2023-04-03T08:55:27;7.40;62.70
27671;DHT22;15077;49.704;9.908;2023-04-03T08:58:04;7.40;63.40
27671;DHT22;15077;49.704;9.908;2023-04-03T09:03:20;7.60;62.10
27671;DHT22;15077;49.704;9.908;2023-04-03T09:06:07;7.60;62.40
27671;DHT22;15077;49.704;9.908;2023-04-03T09:14:28;7.90;61.50
27671;DHT22;15077;49.704;9.908;2023-04-03T09:23:29;8.00;60.30
27671;DHT22;15077;49.704;9.908;2023-04-03T09:26:14;8.00;59.60
27671;DHT22;15077;49.704;9.908;2023-04-03T09:28:44;8.00;61.20
27671;DHT22;15077;49.704;9.908;2023-04-03T09:31:26;8.00;60.70
27671;DHT22;15077;49.704;9.908;2023-04-03T09:34:02;8.00;60.10
27671;DHT22;15077;49.704;9.908;2023-04-03T09:36:45;8.10;61.10
27671;DHT22;15077;49.704;9.908;2023-04-03T09:39:21;8.10;58.40
27671;DHT22;15077;49.704;9.908;2023-04-03T09:42:16;8.20;59.30
27671;DHT22;15077;49.704;9.908;2023-04-03T09:44:55;8.20;59.00
27671;DHT22;15077;49.704;9.908;2023-04-03T09:47:34;8.20;59.30
27671;DHT22;15077;49.704;9.908;2023-04-03T09:50:20;8.30;58.20
27671;DHT22;15077;49.704;9.908;2023-04-03T09:52:52;8.40;58.60
27671;DHT22;15077;49.704;9.908;2023-04-03T09:55:23;8.40;59.40
27671;DHT22;15077;49.704;9.908;2023-04-03T09:58:02;8.40;59.50
27671;DHT22;15077;49.704;9.908;2023-04-03T10:00:37;8.50;58.20
27671;DHT22;15077;49.704;9.908;2023-04-03T10:03:34;8.50;57.80
27671;DHT22;15077;49.704;9.908;2023-04-03T10:06:03;8.50;58.50
27671;DHT22;15077;49.704;9.908;2023-04-03T10:08:32;8.50;59.10
27671;DHT22;15077;49.704;9.908;2023-04-03T10:11:14;8.60;59.00
27671;DHT22;15077;49.704;9.908;2023-04-03T10:14:00;8.60;58.00
27671;DHT22;15077;49.704;9.908;2023-04-03T10:28:38;8.90;56.40
27671;DHT22;15077;49.704;9.908;2023-04-03T10:42:56;9.00;56.70
27671;DHT22;15077;49.704;9.908;2023-04-03T10:57:05;9.40;54.70
27671;DHT22;15077;49.704;9.908;2023-04-03T10:59:35;9.40;53.80
27671;DHT22;15077;49.704;9.908;2023-04-03T11:02:37;9.50;53.30
27671;DHT22;15077;49.704;9.908;2023-04-03T11:08:35;9.60;54.30
27671;DHT22;15077;49.704;9.908;2023-04-03T11:11:32;9.60;53.60
27671;DHT22;15077;49.704;9.908;2023-04-03T11:16:48;9.70;53.70
27671;DHT22;15077;49.704;9.908;2023-04-03T11:20:00;9.70;53.00
27671;DHT22;15077;49.704;9.908;2023-04-03T11:22:42;9.70;52.60
27671;DHT22;15077;49.704;9.908;2023-04-03T11:25:25;9.70;52.60
27671;DHT22;15077;49.704;9.908;2023-04-03T11:27:57;9.70;50.90
27671;DHT22;15077;49.704;9.908;2023-04-03T11:30:45;9.70;52.60
27671;DHT22;15077;49.704;9.908;2023-04-03T11:33:21;9.70;53.60
27671;DHT22;15077;49.704;9.908;2023-04-03T11:35:57;9.80;52.70
27671;DHT22;15077;49.704;9.908;2023-04-03T11:38:30;9.80;52.40
27671;DHT22;15077;49.704;9.908;2023-04-03T11:41:02;9.90;53.00
27671;DHT22;15077;49.704;9.908;2023-04-03T11:43:31;9.90;51.30
27671;DHT22;15077;49.704;9.908;2023-04-03T11:46:04;10.00;51.60
27671;DHT22;15077;49.704;9.908;2023-04-03T11:51:01;10.00;50.20
27671;DHT22;15077;49.704;9.908;2023-04-03T11:53:47;10.00;50.40
27671;DHT22;15077;49.704;9.908;2023-04-03T11:56:34;10.00;51.70
27671;DHT22;15077;49.704;9.908;2023-04-03T12:04:14;10.10;50.10
27671;DHT22;15077;49.704;9.908;2023-04-03T12:12:34;10.20;50.80
27671;DHT22;15077;49.704;9.908;2023-04-03T12:15:22;10.30;50.20
27671;DHT22;15077;49.704;9.908;2023-04-03T12:17:51;10.30;50.90
27671;DHT22;15077;49.704;9.908;2023-04-03T12:23:34;10.40;50.10
27671;DHT22;15077;49.704;9.908;2023-04-03T12:26:25;10.40;49.60
27671;DHT22;15077;49.704;9.908;2023-04-03T12:28:55;10.40;49.60
27671;DHT22;15077;49.704;9.908;2023-04-03T12:31:24;10.40;49.60
27671;DHT22;15077;49.704;9.908;2023-04-03T12:34:17;10.40;49.20
27671;DHT22;15077;49.704;9.908;2023-04-03T12:36:50;10.40;48.50
27671;DHT22;15077;49.704;9.908;2023-04-03T12:45:13;10.40;48.70
27671;DHT22;15077;49.704;9.908;2023-04-03T12:47:45;10.40;48.40
27671;DHT22;15077;49.704;9.908;2023-04-03T12:50:30;10.40;47.80
27671;DHT22;15077;49.704;9.908;2023-04-03T12:53:07;10.40;47.00
27671;DHT22;15077;49.704;9.908;2023-04-03T12:55:38;10.40;48.50
27671;DHT22;15077;49.704;9.908;2023-04-03T12:58:22;10.40;48.20
27671;DHT22;15077;49.704;9.908;2023-04-03T13:01:14;10.40;50.00
27671;DHT22;15077;49.704;9.908;2023-04-03T13:03:45;10.40;48.40
27671;DHT22;15077;49.704;9.908;2023-04-03T13:06:18;10.40;46.60
27671;DHT22;15077;49.704;9.908;2023-04-03T13:08:55;10.40;47.40
27671;DHT22;15077;49.704;9.908;2023-04-03T13:11:24;10.40;48.20
27671;DHT22;15077;49.704;9.908;2023-04-03T13:14:03;10.40;47.80
27671;DHT22;15077;49.704;9.908;2023-04-03T13:16:39;10.40;48.00
27671;DHT22;15077;49.704;9.908;2023-04-03T13:19:14;10.40;46.40
27671;DHT22;15077;49.704;9.908;2023-04-03T13:21:42;10.40;47.60
27671;DHT22;15077;49.704;9.908;2023-04-03T13:24:09;10.40;48.70
27671;DHT22;15077;49.704;9.908;2023-04-03T13:26:36;10.40;47.70
27671;DHT22;15077;49.704;9.908;2023-04-03T13:29:05;10.50;48.30
27671;DHT22;15077;49.704;9.908;2023-04-03T13:31:35;10.50;47.40
27671;DHT22;15077;49.704;9.908;2023-04-03T13:34:12;10.60;47.60
27671;DHT22;15077;49.704;9.908;2023-04-03T13:41:51;10.70;48.20
27671;DHT22;15077;49.704;9.908;2023-04-03T13:46:52;10.70;45.70
27671;DHT22;15077;49.704;9.908;2023-04-03T13:52:29;10.70;47.40
27671;DHT22;15077;49.704;9.908;2023-04-03T13:55:29;10.70;47.50
27671;DHT22;15077;49.704;9.908;2023-04-03T14:00:51;10.80;46.50
27671;DHT22;15077;49.704;9.908;2023-04-03T14:06:08;10.80;45.00
27671;DHT22;15077;49.704;9.908;2023-04-03T14:08:37;10.80;45.00
27671;DHT22;15077;49.704;9.908;2023-04-03T14:11:03;10.80;44.00
27671;DHT22;15077;49.704;9.908;2023-04-03T14:13:30;10.70;45.20
27671;DHT22;15077;49.704;9.908;2023-04-03T14:15:56;10.70;44.50
27671;DHT22;15077;49.704;9.908;2023-04-03T14:18:22;10.70;45.00
27671;DHT22;15077;49.704;9.908;2023-04-03T14:20:49;10.60;44.90
27671;DHT22;15077;49.704;9.908;2023-04-03T14:23:15;10.60;44.50
27671;DHT22;15077;49.704;9.908;2023-04-03T14:25:41;10.70;43.10
27671;DHT22;15077;49.704;9.908;2023-04-03T14:28:17;10.70;44.50
27671;DHT22;15077;49.704;9.908;2023-04-03T14:30:46;10.70;46.50
27671;DHT22;15077;49.704;9.908;2023-04-03T14:33:15;10.70;45.40
27671;DHT22;15077;49.704;9.908;2023-04-03T14:35:43;10.70;44.50
27671;DHT22;15077;49.704;9.908;2023-04-03T14:38:24;10.70;44.90
27671;DHT22;15077;49.704;9.908;2023-04-03T14:40:53;10.70;45.70
27671;DHT22;15077;49.704;9.908;2023-04-03T14:43:21;10.70;44.50
27671;DHT22;15077;49.704;9.908;2023-04-03T14:45:48;10.70;44.70
27671;DHT22;15077;49.704;9.908;2023-04-03T14:48:19;10.70;44.80
27671;DHT22;15077;49.704;9.908;2023-04-03T14:50:50;10.70;45.20
27671;DHT22;15077;49.704;9.908;2023-04-03T14:53:17;10.70;45.20
27671;DHT22;15077;49.704;9.908;2023-04-03T14:55:49;10.70;45.30
27671;DHT22;15077;49.704;9.908;2023-04-03T14:58:17;10.70;44.10
27671;DHT22;15077;49.704;9.908;2023-04-03T15:00:45;10.70;44.40
27671;DHT22;15077;49.704;9.908;2023-04-03T15:03:16;10.70;44.40
27671;DHT22;15077;49.704;9.908;2023-04-03T15:05:44;10.70;44.30
27671;DHT22;15077;49.704;9.908;2023-04-03T15:08:26;10.70;44.60
27671;DHT22;15077;49.704;9.908;2023-04-03T15:10:57;10.70;43.30
27671;DHT22;15077;49.704;9.908;2023-04-03T15:13:23;10.70;42.90
27671;DHT22;15077;49.704;9.908;2023-04-03T15:15:50;10.60;43.10
27671;DHT22;15077;49.704;9.908;2023-04-03T15:18:22;10.60;44.40
27671;DHT22;15077;49.704;9.908;2023-04-03T15:20:52;10.50;42.90
27671;DHT22;15077;49.704;9.908;2023-04-03T15:23:18;10.40;43.80
27671;DHT22;15077;49.704;9.908;2023-04-03T15:25:46;10.40;44.20
27671;DHT22;15077;49.704;9.908;2023-04-03T15:28:35;10.40;44.10
27671;DHT22;15077;49.704;9.908;2023-04-03T15:31:03;10.40;45.10
27671;DHT22;15077;49.704;9.908;2023-04-03T15:33:31;10.40;45.00
27671;DHT22;15077;49.704;9.908;2023-04-03T15:35:58;10.40;45.70
27671;DHT22;15077;49.704;9.908;2023-04-03T15:38:24;10.40;45.80
27671;DHT22;15077;49.704;9.908;2023-04-03T15:40:50;10.40;46.60
27671;DHT22;15077;49.704;9.908;2023-04-03T15:43:17;10.40;45.30
27671;DHT22;15077;49.704;9.908;2023-04-03T15:45:44;10.40;45.80
27671;DHT22;15077;49.704;9.908;2023-04-03T15:48:10;10.40;45.50
27671;DHT22;15077;49.704;9.908;2023-04-03T15:50:38;10.30;46.10
27671;DHT22;15077;49.704;9.908;2023-04-03T15:53:04;10.30;46.30
27671;DHT22;15077;49.704;9.908;2023-04-03T15:55:32;10.30;45.90
27671;DHT22;15077;49.704;9.908;2023-04-03T15:58:00;10.20;46.20
27671;DHT22;15077;49.704;9.908;2023-04-03T16:00:27;10.20;45.60
27671;DHT22;15077;49.704;9.908;2023-04-03T16:03:04;10.20;43.70
27671;DHT22;15077;49.704;9.908;2023-04-03T16:05:35;10.20;44.20
27671;DHT22;15077;49.704;9.908;2023-04-03T16:08:04;10.20;44.20
27671;DHT22;15077;49.704;9.908;2023-04-03T16:10:31;10.10;44.10
27671;DHT22;15077;49.704;9.908;2023-04-03T16:12:57;10.10;44.30
27671;DHT22;15077;49.704;9.908;2023-04-03T16:15:23;10.00;44.10
27671;DHT22;15077;49.704;9.908;2023-04-03T16:17:51;9.90;44.40
27671;DHT22;15077;49.704;9.908;2023-04-03T16:20:18;9.80;45.40
27671;DHT22;15077;49.704;9.908;2023-04-03T16:22:44;9.80;45.80
27671;DHT22;15077;49.704;9.908;2023-04-03T16:25:10;9.80;44.50
27671;DHT22;15077;49.704;9.908;2023-04-03T16:27:37;9.80;44.20
27671;DHT22;15077;49.704;9.908;2023-04-03T16:30:04;9.80;45.70
27671;DHT22;15077;49.704;9.908;2023-04-03T16:32:31;9.80;45.40
27671;DHT22;15077;49.704;9.908;2023-04-03T16:34:58;9.80;45.00
27671;DHT22;15077;49.704;9.908;2023-04-03T16:37:24;9.80;44.60
27671;DHT22;15077;49.704;9.908;2023-04-03T16:39:50;9.70;44.60
27671;DHT22;15077;49.704;9.908;2023-04-03T16:42:16;9.70;44.30
27671;DHT22;15077;49.704;9.908;2023-04-03T16:44:42;9.70;44.50
27671;DHT22;15077;49.704;9.908;2023-04-03T16:47:08;9.60;45.00
27671;DHT22;15077;49.704;9.908;2023-04-03T16:49:35;9.50;45.10
27671;DHT22;15077;49.704;9.908;2023-04-03T16:52:04;9.30;45.40
27671;DHT22;15077;49.704;9.908;2023-04-03T16:54:31;9.20;45.30
27671;DHT22;15077;49.704;9.908;2023-04-03T16:56:57;9.10;45.80
27671;DHT22;15077;49.704;9.908;2023-04-03T16:59:23;9.00;46.60
27671;DHT22;15077;49.704;9.908;2023-04-03T17:01:50;8.90;46.60
27671;DHT22;15077;49.704;9.908;2023-04-03T17:04:15;8.80;46.90
27671;DHT22;15077;49.704;9.908;2023-04-03T17:06:41;8.80;46.80
27671;DHT22;15077;49.704;9.908;2023-04-03T17:09:08;8.80;46.90
27671;DHT22;15077;49.704;9.908;2023-04-03T17:11:35;8.70;46.90
27671;DHT22;15077;49.704;9.908;2023-04-03T17:14:01;8.70;46.90
27671;DHT22;15077;49.704;9.908;2023-04-03T17:16:28;8.60;46.40
27671;DHT22;15077;49.704;9.908;2023-04-03T17:18:54;8.60;46.40
27671;DHT22;15077;49.704;9.908;2023-04-03T17:21:21;8.60;47.00
27671;DHT22;15077;49.704;9.908;2023-04-03T17:23:51;8.50;47.50
27671;DHT22;15077;49.704;9.908;2023-04-03T17:26:23;8.40;47.20
27671;DHT22;15077;49.704;9.908;2023-04-03T17:28:51;8.40;47.50
27671;DHT22;15077;49.704;9.908;2023-04-03T17:31:17;8.30;47.60
27671;DHT22;15077;49.704;9.908;2023-04-03T17:33:43;8.30;47.80
27671;DHT22;15077;49.704;9.908;2023-04-03T17:36:09;8.20;48.10
27671;DHT22;15077;49.704;9.908;2023-04-03T17:38:35;8.10;48.10